Time;durP1;ratioP1;P1;durP2;ratioP2;P2;SDS_P1;SDS_P2;PMS_P1;PMS_P2;Temp;Humidity;BMP_temperature;BMP_pressure;BME280_temperature;BME280_humidity;BME280_pressure;Samples;Min_cycle;Max_cycle;Signal;HPM_P1;HPM_P2
2023/01/29 00:01:55;;;;;;;17.63;11.75;;;;;;;5.12;100.00;103078.41;5047548;28;20136;-70
2023/01/29 00:04:21;;;;;;;16.50;11.60;;;;;;;5.10;100.00;103081.84;5048937;28;20029;-68
2023/01/29 00:06:46;;;;;;;17.90;11.35;;;;;;;5.09;100.00;103072.25;5014493;28;20033;-72
2023/01/29 00:09:12;;;;;;;18.45;11.50;;;;;;;5.16;100.00;103075.06;5036289;28;20482;-68
2023/01/29 00:11:38;;;;;;;18.70;11.18;;;;;;;5.16;100.00;103072.44;5028699;28;20061;-72
2023/01/29 00:14:04;;;;;;;18.13;10.77;;;;;;;5.13;100.00;103071.47;5027888;28;20038;-72
2023/01/29 00:16:29;;;;;;;21.55;11.60;;;;;;;5.15;100.00;103065.44;5026897;28;20041;-71
2023/01/29 00:18:55;;;;;;;18.98;11.52;;;;;;;5.15;100.00;103061.97;5028345;28;20030;-68
2023/01/29 00:21:21;;;;;;;20.38;12.45;;;;;;;5.04;100.00;103059.97;5028152;28;20033;-70
2023/01/29 00:23:47;;;;;;;20.17;12.35;;;;;;;5.05;100.00;103056.50;5036470;28;20021;-71
2023/01/29 00:26:13;;;;;;;19.55;11.65;;;;;;;5.09;100.00;103056.56;5048657;28;20029;-73
2023/01/29 00:28:38;;;;;;;21.67;12.57;;;;;;;5.06;100.00;103057.38;5047366;28;20033;-72
2023/01/29 00:31:11;;;;;;;20.95;11.10;;;;;;;5.10;100.00;103066.16;5048534;28;20032;-73
2023/01/29 00:33:36;;;;;;;18.23;11.85;;;;;;;5.09;100.00;103070.50;5047423;28;20068;-73
2023/01/29 00:36:04;;;;;;;20.48;12.18;;;;;;;5.02;100.00;103069.47;5048468;28;20084;-72
2023/01/29 00:38:29;;;;;;;20.75;11.93;;;;;;;5.11;100.00;103062.69;5048164;28;20029;-70
2023/01/29 00:46:23;;;;;;;17.85;11.52;;;;;;;5.14;100.00;103044.50;5047037;28;20461;-70
2023/01/29 00:48:48;;;;;;;18.63;11.20;;;;;;;5.14;100.00;103044.50;5048728;28;20108;-71
2023/01/29 00:51:13;;;;;;;19.98;11.32;;;;;;;5.08;100.00;103033.91;5030602;28;20476;-66
2023/01/29 00:53:39;;;;;;;21.17;12.07;;;;;;;5.10;100.00;103045.25;5040339;28;20355;-70
2023/01/29 00:56:04;;;;;;;19.00;11.20;;;;;;;5.09;100.00;103043.50;5028377;28;20163;-70
2023/01/29 00:58:33;;;;;;;17.73;11.57;;;;;;;5.04;100.00;103028.59;5028404;28;20022;-70
2023/01/29 01:00:59;;;;;;;19.88;12.52;;;;;;;5.03;100.00;103033.78;5028456;28;20116;-72
2023/01/29 01:03:25;;;;;;;17.60;11.43;;;;;;;5.05;100.00;103030.38;5028072;28;20026;-72
2023/01/29 01:06:01;;;;;;;18.02;11.65;;;;;;;5.09;100.00;103022.59;5028296;28;20032;-73
2023/01/29 01:11:11;;;;;;;19.27;11.55;;;;;;;5.13;100.00;103025.31;5013626;28;20048;-68
2023/01/29 01:13:36;;;;;;;19.02;11.88;;;;;;;5.13;100.00;103034.88;5028914;28;20021;-69
2023/01/29 01:16:08;;;;;;;18.10;11.77;;;;;;;5.16;100.00;103029.75;5031817;28;20057;-75
2023/01/29 01:18:33;;;;;;;18.42;11.82;;;;;;;5.12;100.00;103030.53;5029655;28;20029;-71
2023/01/29 01:20:59;;;;;;;16.75;11.65;;;;;;;5.12;100.00;103036.59;5028723;28;20395;-71
2023/01/29 01:23:24;;;;;;;17.98;12.32;;;;;;;4.99;100.00;103035.44;5031410;28;20117;-72
2023/01/29 01:25:50;;;;;;;18.33;11.25;;;;;;;5.02;100.00;103030.28;5031543;28;20076;-72
2023/01/29 01:28:15;;;;;;;21.27;12.80;;;;;;;5.02;100.00;103032.91;5031846;28;20520;-72
2023/01/29 01:30:41;;;;;;;19.00;12.05;;;;;;;5.10;100.00;103037.41;5030963;28;20478;-71
2023/01/29 01:33:06;;;;;;;18.23;11.93;;;;;;;5.09;100.00;103048.72;5029317;28;20053;-71
2023/01/29 01:35:32;;;;;;;17.20;11.00;;;;;;;5.12;100.00;103046.19;5029012;28;20143;-72
2023/01/29 01:37:57;;;;;;;22.33;11.98;;;;;;;5.16;100.00;103038.47;5029677;28;20039;-71
2023/01/29 01:40:24;;;;;;;16.83;11.30;;;;;;;5.09;100.00;103046.13;5028204;28;20391;-68
2023/01/29 01:42:55;;;;;;;17.88;12.07;;;;;;;5.12;100.00;103046.19;5027750;28;20096;-70
2023/01/29 01:45:21;;;;;;;19.15;11.88;;;;;;;5.08;100.00;103049.59;5028538;28;20109;-72
2023/01/29 01:47:49;;;;;;;16.63;11.75;;;;;;;5.11;100.00;103044.41;5029096;28;20211;-73
2023/01/29 01:50:18;;;;;;;18.98;11.38;;;;;;;5.08;100.00;103049.59;5018532;28;20099;-72
2023/01/29 01:52:46;;;;;;;17.53;11.53;;;;;;;5.13;100.00;103047.97;5033091;28;20025;-68
2023/01/29 01:55:13;;;;;;;15.32;10.85;;;;;;;5.18;100.00;103056.81;5050468;28;20048;-69
2023/01/29 01:57:41;;;;;;;17.30;10.57;;;;;;;5.22;100.00;103042.97;5032588;28;20029;-70
2023/01/29 02:00:13;;;;;;;18.15;10.65;;;;;;;5.23;100.00;103042.09;5050937;28;20029;-72
2023/01/29 02:10:54;;;;;;;16.88;10.85;;;;;;;5.22;100.00;103034.22;5030755;28;20120;-70
2023/01/29 02:13:20;;;;;;;16.42;11.10;;;;;;;5.24;100.00;103040.38;5030741;28;20120;-73
2023/01/29 02:15:47;;;;;;;15.35;10.43;;;;;;;5.27;100.00;103023.03;5012999;28;20741;-67
2023/01/29 02:18:14;;;;;;;14.02;10.30;;;;;;;5.28;100.00;103022.19;5029407;28;20032;-72
2023/01/29 02:20:41;;;;;;;15.50;10.93;;;;;;;5.18;100.00;103023.69;5012376;28;20476;-71
2023/01/29 02:23:28;;;;;;;18.15;10.65;;;;;;;5.16;100.00;103027.13;5011346;28;20728;-70
2023/01/29 02:26:20;;;;;;;15.88;10.32;;;;;;;5.24;100.00;103035.16;5049431;28;20139;-71
2023/01/29 02:29:21;;;;;;;16.83;11.10;;;;;;;5.17;100.00;103034.09;5031729;28;20415;-68
2023/01/29 02:31:58;;;;;;;14.68;10.07;;;;;;;5.16;100.00;103033.25;5034287;28;20053;-71
2023/01/29 02:34:26;;;;;;;15.73;10.77;;;;;;;5.14;100.00;103032.31;5032229;28;20033;-68
2023/01/29 02:36:54;;;;;;;17.55;11.35;;;;;;;5.14;100.00;103032.31;5050064;28;20029;-69
2023/01/29 02:39:51;;;;;;;17.60;10.80;;;;;;;5.14;100.00;103034.94;5034614;28;20140;-75
2023/01/29 02:42:27;;;;;;;15.18;10.43;;;;;;;5.15;100.00;103041.06;5002182;28;20199;-72
2023/01/29 02:44:55;;;;;;;20.58;11.82;;;;;;;5.06;100.00;103039.97;5040080;28;20091;-71
2023/01/29 02:47:37;;;;;;;20.05;11.50;;;;;;;5.20;100.00;103039.41;5050157;28;20063;-68
2023/01/29 02:50:05;;;;;;;16.15;10.85;;;;;;;5.23;100.00;103030.75;5032272;28;20029;-72
2023/01/29 02:52:38;;;;;;;14.50;10.80;;;;;;;5.21;100.00;103035.94;5032279;28;20025;-66
2023/01/29 02:55:22;;;;;;;17.88;10.82;;;;;;;5.18;100.00;103026.31;5032672;28;20116;-66
2023/01/29 02:57:50;;;;;;;17.02;10.90;;;;;;;5.25;100.00;103022.13;5049883;28;20487;-72
2023/01/29 03:00:19;;;;;;;18.60;11.93;;;;;;;5.17;100.00;103026.28;5031165;28;20021;-72
2023/01/29 03:02:54;;;;;;;19.97;12.30;;;;;;;5.15;100.00;103027.97;5048018;28;20037;-71
2023/01/29 03:05:36;;;;;;;17.65;11.20;;;;;;;5.17;100.00;103036.72;5048888;28;20036;-70
2023/01/29 03:08:05;;;;;;;18.90;12.82;;;;;;;5.20;100.00;103021.13;5029161;28;20025;-69
2023/01/29 03:10:43;;;;;;;;;;;;;;;5.24;100.00;103015.09;4995582;28;20048;-72
2023/01/29 03:13:21;;;;;;;17.88;11.55;;;;;;;5.26;100.00;103007.31;5011250;28;19913;-73
2023/01/29 03:15:50;;;;;;;22.40;13.30;;;;;;;5.20;100.00;103005.44;5028681;28;20029;-70
2023/01/29 03:18:21;;;;;;;19.90;12.75;;;;;;;5.23;100.00;103008.13;5011149;28;20036;-72
2023/01/29 03:20:52;;;;;;;20.48;13.27;;;;;;;5.20;100.00;103018.50;5011789;28;20061;-72
2023/01/29 03:23:36;;;;;;;24.33;14.93;;;;;;;5.13;100.00;103019.22;5041171;28;20163;-72
2023/01/29 03:34:23;;;;;;;21.38;13.48;;;;;;;5.13;100.00;102996.59;5033927;28;20111;-71
2023/01/29 03:37:01;;;;;;;24.42;14.88;;;;;;;5.13;100.00;102993.06;5031069;28;20029;-73
2023/01/29 03:39:27;;;;;;;21.73;13.80;;;;;;;5.16;100.00;102998.38;5048500;28;20024;-71
2023/01/29 03:41:57;;;;;;;22.27;15.25;;;;;;;5.14;100.00;102997.44;5029619;28;20033;-73
2023/01/29 03:44:36;;;;;;;25.63;15.20;;;;;;;5.09;100.00;102992.09;5028605;28;20677;-68
2023/01/29 03:47:04;;;;;;;25.77;16.08;;;;;;;5.04;100.00;103001.56;5028597;28;20456;-73
2023/01/29 03:50:07;;;;;;;34.05;16.20;;;;;;;5.13;100.00;102990.47;5028620;28;20468;-70
2023/01/29 03:52:47;;;;;;;25.63;15.95;;;;;;;5.12;100.00;102989.56;5028687;28;20106;-71
2023/01/29 03:55:16;;;;;;;28.88;15.85;;;;;;;5.15;100.00;102991.38;5010795;28;20021;-72
2023/01/29 03:58:02;;;;;;;22.20;15.55;;;;;;;5.05;100.00;102978.09;5014196;28;20113;-71
2023/01/29 04:00:56;;;;;;;23.55;15.98;;;;;;;5.13;100.00;102972.16;5010532;28;20029;-70
2023/01/29 04:03:36;;;;;;;28.83;17.02;;;;;;;5.06;100.00;102969.41;5024658;28;20495;-66
2023/01/29 04:06:09;;;;;;;30.85;16.73;;;;;;;5.06;100.00;102969.41;4994806;28;20040;-72
2023/01/29 04:08:39;;;;;;;29.23;17.17;;;;;;;5.10;100.00;102964.25;5010439;28;20468;-69
2023/01/29 04:11:10;;;;;;;25.30;16.05;;;;;;;5.11;100.00;102966.00;5028167;28;20092;-69
2023/01/29 04:13:37;;;;;;;25.88;17.10;;;;;;;5.08;100.00;102969.44;5011490;28;20029;-71
2023/01/29 04:16:05;;;;;;;24.85;15.77;;;;;;;5.09;100.00;102968.59;5010214;28;20071;-72
2023/01/29 04:18:32;;;;;;;24.02;16.58;;;;;;;5.13;100.00;102969.56;5010677;28;20037;-68
2023/01/29 04:20:58;;;;;;;26.67;17.27;;;;;;;5.09;100.00;102968.59;5010074;28;20499;-72
2023/01/29 04:23:25;;;;;;;25.42;15.60;;;;;;;5.06;100.00;102960.69;5010520;28;20468;-72
2023/01/29 04:26:12;;;;;;;26.00;16.27;;;;;;;5.06;100.00;102953.72;5028091;28;20084;-71
2023/01/29 04:28:58;;;;;;;25.58;16.52;;;;;;;4.99;100.00;102951.81;5027701;28;20488;-70
2023/01/29 04:31:30;;;;;;;27.20;15.75;;;;;;;5.00;100.00;102950.09;5026602;28;20084;-73
2023/01/29 04:34:23;;;;;;;27.35;17.25;;;;;;;4.94;100.00;102953.44;5009260;28;20032;-66
2023/01/29 04:36:59;;;;;;;23.60;15.45;;;;;;;4.98;100.00;102950.06;4976402;28;20384;-71
2023/01/29 04:39:44;;;;;;;24.52;15.55;;;;;;;4.90;100.00;102951.59;5026635;28;20655;-68
2023/01/29 04:42:29;;;;;;;23.95;16.40;;;;;;;4.92;100.00;102939.47;5009961;28;20029;-66
2023/01/29 04:45:35;;;;;;;28.02;15.20;;;;;;;5.01;100.00;102931.84;5009935;28;20030;-70
2023/01/29 04:48:20;;;;;;;24.50;14.68;;;;;;;5.02;100.00;102935.31;5026305;28;20087;-70
2023/01/29 04:51:02;;;;;;;22.13;14.98;;;;;;;5.03;100.00;102937.09;5012236;28;20033;-73
2023/01/29 04:53:41;;;;;;;23.60;14.80;;;;;;;5.04;100.00;102937.16;5029062;28;20471;-71
2023/01/29 04:56:19;;;;;;;26.92;15.43;;;;;;;5.10;100.00;102925.06;5030649;28;20021;-74
2023/01/29 04:58:52;;;;;;;22.08;14.80;;;;;;;5.10;100.00;102915.50;5048730;28;20104;-68
2023/01/29 05:01:18;;;;;;;22.95;14.75;;;;;;;5.04;100.00;102917.97;5048016;28;20037;-72
2023/01/29 05:03:47;;;;;;;21.10;15.02;;;;;;;5.04;100.00;102918.84;5036399;28;20104;-69
2023/01/29 05:06:13;;;;;;;25.08;14.68;;;;;;;5.04;100.00;102920.56;5010409;28;20042;-73
2023/01/29 05:08:39;;;;;;;21.25;14.30;;;;;;;4.97;100.00;102927.38;5010070;28;20040;-74
2023/01/29 05:11:04;;;;;;;22.40;14.93;;;;;;;5.04;100.00;102918.84;5010700;28;20034;-69
2023/01/29 05:13:31;;;;;;;24.90;14.52;;;;;;;4.98;100.00;102903.03;5010245;28;20088;-73
2023/01/29 05:16:01;;;;;;;24.58;14.45;;;;;;;5.06;100.00;102917.13;5009954;28;20076;-71
2023/01/29 05:18:28;;;;;;;21.83;14.95;;;;;;;5.09;100.00;102923.28;5021749;28;20041;-72
2023/01/29 05:20:55;;;;;;;20.70;13.98;;;;;;;5.13;100.00;102925.13;5047644;28;20052;-67
2023/01/29 05:23:21;;;;;;;21.15;14.57;;;;;;;5.18;100.00;102920.91;5021632;28;20030;-71
2023/01/29 05:25:48;;;;;;;21.63;14.02;;;;;;;5.20;100.00;102913.09;5033435;28;20383;-74
2023/01/29 05:28:17;;;;;;;20.95;14.27;;;;;;;5.18;100.00;102916.53;5031944;28;20029;-66
2023/01/29 05:30:45;;;;;;;21.92;13.20;;;;;;;5.16;100.00;102909.50;5013581;28;20057;-70
2023/01/29 05:33:16;;;;;;;21.15;14.75;;;;;;;5.10;100.00;102902.41;5048565;28;20033;-70
2023/01/29 05:35:42;;;;;;;24.00;14.07;;;;;;;5.18;100.00;102897.38;5036099;28;20041;-72
2023/01/29 05:38:08;;;;;;;19.75;13.20;;;;;;;5.13;100.00;102896.38;5053564;28;20031;-70
2023/01/29 05:40:33;;;;;;;19.88;13.73;;;;;;;5.10;100.00;102894.59;5052450;28;20025;-70
2023/01/29 05:42:59;;;;;;;25.20;13.43;;;;;;;5.16;100.00;102896.44;5052902;28;20029;-73
2023/01/29 05:45:25;;;;;;;20.60;13.35;;;;;;;5.15;100.00;102907.75;5054462;28;20029;-72
2023/01/29 05:47:54;;;;;;;22.95;14.63;;;;;;;5.09;100.00;102905.84;5054606;28;20452;-70
2023/01/29 05:50:20;;;;;;;20.67;13.55;;;;;;;5.09;100.00;102900.63;5053801;28;20393;-68
2023/01/29 05:52:45;;;;;;;23.67;14.63;;;;;;;5.13;100.00;102894.66;5051883;28;20029;-71
2023/01/29 05:55:10;;;;;;;21.10;13.52;;;;;;;5.19;100.00;102904.34;5052694;28;20391;-75
2023/01/29 05:57:36;;;;;;;21.75;14.13;;;;;;;5.08;100.00;102895.41;5052807;28;20048;-71
2023/01/29 06:00:03;;;;;;;26.35;14.38;;;;;;;5.13;100.00;102906.81;5033761;28;20546;-71
2023/01/29 06:02:30;;;;;;;26.10;14.48;;;;;;;5.14;100.00;102904.25;5032656;28;20128;-72
2023/01/29 06:04:55;;;;;;;21.38;14.68;;;;;;;5.17;100.00;102903.44;5051520;28;20071;-72
2023/01/29 06:07:20;;;;;;;24.15;14.80;;;;;;;5.23;100.00;102890.50;5051764;28;20052;-73
2023/01/29 06:09:46;;;;;;;23.40;14.88;;;;;;;5.20;100.00;102902.63;5050711;28;20099;-72
2023/01/29 06:12:11;;;;;;;22.95;15.18;;;;;;;5.24;100.00;102900.09;5050863;28;20033;-74
2023/01/29 06:14:37;;;;;;;21.83;13.68;;;;;;;5.23;100.00;102885.28;5050806;28;20029;-73
2023/01/29 06:17:03;;;;;;;21.25;15.23;;;;;;;5.21;100.00;102884.34;5049445;28;20025;-66
2023/01/29 06:19:29;;;;;;;22.15;14.70;;;;;;;5.21;100.00;102884.34;5050265;28;20021;-72
2023/01/29 06:21:54;;;;;;;24.63;15.88;;;;;;;5.16;100.00;102883.38;5050646;28;20021;-71
2023/01/29 06:24:19;;;;;;;24.70;15.45;;;;;;;5.14;100.00;102883.34;5049912;28;20037;-69
2023/01/29 06:26:45;;;;;;;25.15;16.33;;;;;;;5.06;100.00;102885.78;5049854;28;20084;-72
2023/01/29 06:29:10;;;;;;;25.38;15.38;;;;;;;5.11;100.00;102871.94;5049696;28;20450;-72
2023/01/29 06:31:35;;;;;;;27.25;15.32;;;;;;;5.16;100.00;102878.16;5045172;28;20049;-73
2023/01/29 06:34:01;;;;;;;21.75;14.85;;;;;;;5.13;100.00;102865.00;5030518;28;20104;-71
2023/01/29 06:36:26;;;;;;;25.45;15.57;;;;;;;5.20;100.00;102861.69;5030175;28;20029;-72
2023/01/29 06:38:52;;;;;;;21.95;14.55;;;;;;;5.09;100.00;102857.97;5030189;28;20026;-72
2023/01/29 06:41:18;;;;;;;20.75;14.73;;;;;;;5.04;100.00;102850.91;5030660;28;20431;-68
2023/01/29 06:43:44;;;;;;;20.52;14.60;;;;;;;5.02;100.00;102854.31;5030245;28;20026;-73
2023/01/29 06:46:09;;;;;;;23.70;15.35;;;;;;;5.02;100.00;102867.38;4995546;28;20112;-72
2023/01/29 06:48:35;;;;;;;25.48;15.25;;;;;;;5.08;100.00;102864.91;5030244;28;20536;-70
2023/01/29 06:51:04;;;;;;;25.63;14.85;;;;;;;5.16;100.00;102872.91;5029969;28;20615;-72
2023/01/29 06:53:31;;;;;;;25.17;15.57;;;;;;;5.13;100.00;102865.00;5028746;28;20033;-70
2023/01/29 06:55:56;;;;;;;23.35;15.35;;;;;;;5.13;100.00;102859.78;5012060;28;20040;-69
2023/01/29 06:58:22;;;;;;;23.73;14.77;;;;;;;5.12;100.00;102871.09;5030073;28;20423;-68
2023/01/29 07:00:47;;;;;;;25.98;14.95;;;;;;;5.22;100.00;102860.00;5029577;28;20048;-72
2023/01/29 07:03:13;;;;;;;22.50;15.27;;;;;;;5.14;100.00;102859.81;5029976;28;20383;-71
2023/01/29 07:05:38;;;;;;;22.35;15.07;;;;;;;5.18;100.00;102863.41;5029937;28;20018;-69
2023/01/29 07:08:03;;;;;;;23.90;15.98;;;;;;;5.22;100.00;102864.31;5029718;28;20026;-72
2023/01/29 07:10:29;;;;;;;22.60;15.60;;;;;;;5.10;100.00;102865.84;5029344;28;20546;-71
2023/01/29 07:12:55;;;;;;;23.77;15.48;;;;;;;5.09;100.00;102873.63;5012050;28;20065;-73
2023/01/29 07:15:20;;;;;;;25.65;15.95;;;;;;;5.14;100.00;102866.78;5028985;28;20087;-70
2023/01/29 07:18:01;;;;;;;21.83;15.30;;;;;;;5.14;100.00;102861.53;5029518;28;20112;-71
2023/01/29 07:20:28;;;;;;;23.27;15.82;;;;;;;5.10;100.00;102850.16;5011954;28;20053;-70
2023/01/29 07:22:55;;;;;;;24.50;15.30;;;;;;;5.00;100.00;102853.41;5028968;28;20155;-71
2023/01/29 07:25:21;;;;;;;23.13;16.08;;;;;;;5.03;100.00;102858.72;5029994;28;20025;-72
2023/01/29 07:27:47;;;;;;;25.05;15.18;;;;;;;5.13;100.00;102854.56;5032153;28;20024;-65
2023/01/29 07:30:13;;;;;;;26.90;15.13;;;;;;;5.03;100.00;102863.94;5028626;28;20064;-72
2023/01/29 07:32:38;;;;;;;23.33;15.10;;;;;;;5.10;100.00;102873.69;5042008;28;20073;-71
2023/01/29 07:35:04;;;;;;;22.38;15.57;;;;;;;5.17;100.00;102861.59;5028948;28;20476;-69
2023/01/29 07:37:29;;;;;;;23.67;15.63;;;;;;;5.12;100.00;102864.13;5030956;28;20068;-70
2023/01/29 07:39:55;;;;;;;22.40;15.27;;;;;;;5.10;100.00;102871.06;5039475;28;20095;-73
2023/01/29 07:42:20;;;;;;;23.88;15.23;;;;;;;5.14;100.00;102869.38;5031462;28;20034;-70
2023/01/29 07:44:45;;;;;;;22.80;15.38;;;;;;;5.17;100.00;102864.22;5010385;28;20171;-72
2023/01/29 07:47:11;;;;;;;24.83;15.38;;;;;;;5.22;100.00;102860.00;5030056;28;20014;-71
2023/01/29 07:49:36;;;;;;;23.40;14.95;;;;;;;5.25;100.00;102860.06;5028717;28;20029;-73
2023/01/29 07:52:01;;;;;;;23.38;15.07;;;;;;;5.18;100.00;102853.81;5033530;28;20021;-68
2023/01/29 07:54:27;;;;;;;22.85;15.30;;;;;;;5.17;100.00;102861.59;5030639;28;20021;-71
2023/01/29 07:56:52;;;;;;;22.77;15.15;;;;;;;5.21;100.00;102852.13;5010551;28;20053;-71
2023/01/29 07:59:17;;;;;;;20.40;14.60;;;;;;;5.16;100.00;102845.06;5028442;28;20460;-71
2023/01/29 08:01:43;;;;;;;25.23;15.90;;;;;;;5.25;100.00;102843.47;5026703;28;20560;-66
2023/01/29 08:04:08;;;;;;;22.23;14.95;;;;;;;5.31;100.00;102844.50;5032914;28;20407;-68
2023/01/29 08:06:33;;;;;;;24.75;16.20;;;;;;;5.31;100.00;102849.72;5028848;28;20064;-70
2023/01/29 08:08:59;;;;;;;23.65;15.82;;;;;;;5.32;100.00;102853.22;5030281;28;20029;-71
2023/01/29 08:11:24;;;;;;;23.90;16.13;;;;;;;5.21;100.00;102841.66;5030884;28;20021;-71
2023/01/29 08:13:50;;;;;;;26.60;16.10;;;;;;;5.28;100.00;102844.44;5047558;28;20456;-69
2023/01/29 08:16:15;;;;;;;23.20;16.23;;;;;;;5.30;100.00;102847.94;5017684;28;20033;-71
2023/01/29 08:18:45;;;;;;;22.98;15.75;;;;;;;5.35;100.00;102840.19;5023533;28;20124;-71
2023/01/29 08:21:10;;;;;;;25.70;15.82;;;;;;;5.29;100.00;102825.28;5011167;28;20026;-70
2023/01/29 08:23:35;;;;;;;26.02;15.80;;;;;;;5.25;100.00;102827.78;5027254;28;20367;-72
2023/01/29 08:26:02;;;;;;;27.00;16.83;;;;;;;5.18;100.00;102822.44;5028814;28;20068;-71
2023/01/29 08:28:27;;;;;;;23.60;15.50;;;;;;;5.20;100.00;102825.09;5040480;28;20024;-66
2023/01/29 08:30:53;;;;;;;26.40;16.55;;;;;;;5.17;100.00;102822.41;5009293;28;20037;-69
2023/01/29 08:33:18;;;;;;;25.48;17.13;;;;;;;5.23;100.00;102822.53;5028258;28;20072;-72
2023/01/29 08:35:48;;;;;;;23.67;16.38;;;;;;;5.30;100.00;102829.66;5028593;28;20464;-72
2023/01/29 08:38:14;;;;;;;23.65;16.27;;;;;;;5.39;100.00;102820.25;5028201;28;20083;-71
2023/01/29 08:40:39;;;;;;;30.58;16.92;;;;;;;5.42;100.00;102815.09;5031467;28;20103;-69
2023/01/29 08:43:06;;;;;;;23.67;15.55;;;;;;;5.39;100.00;102815.88;5037953;28;20476;-68
2023/01/29 08:45:34;;;;;;;24.17;15.85;;;;;;;5.43;100.00;102816.84;5026414;28;20515;-72
2023/01/29 08:47:59;;;;;;;23.80;16.02;;;;;;;5.43;100.00;102809.88;5028287;28;20021;-71
2023/01/29 08:50:24;;;;;;;28.15;16.05;;;;;;;5.46;100.00;102802.94;5009711;28;20152;-68
2023/01/29 08:52:50;;;;;;;25.23;15.85;;;;;;;5.51;100.00;102802.16;5020126;28;20117;-71
2023/01/29 08:55:15;;;;;;;25.45;15.68;;;;;;;5.57;100.00;102809.25;5047988;28;20021;-70
2023/01/29 08:57:41;;;;;;;24.48;15.93;;;;;;;5.49;100.00;102801.28;5049445;28;20116;-66
2023/01/29 09:00:08;;;;;;;24.83;15.90;;;;;;;5.60;100.00;102792.75;5039875;28;20541;-71
2023/01/29 09:02:33;;;;;;;26.23;15.98;;;;;;;5.69;100.00;102792.91;5013786;28;20508;-72
2023/01/29 09:04:59;;;;;;;22.88;16.73;;;;;;;5.79;100.00;102799.19;5032477;28;20073;-69
2023/01/29 09:07:24;;;;;;;22.17;15.65;;;;;;;5.89;100.00;102794.97;5031382;28;20471;-71
2023/01/29 09:09:49;;;;;;;24.13;16.55;;;;;;;5.80;100.00;102801.81;5032397;28;20021;-71
2023/01/29 09:12:15;;;;;;;27.48;16.73;;;;;;;5.82;100.00;102805.34;5035828;28;20376;-68
2023/01/29 09:14:40;;;;;;;23.80;16.10;;;;;;;5.78;100.00;102808.75;5040801;28;20065;-70
2023/01/29 09:17:06;;;;;;;32.00;16.80;;;;;;;5.81;100.00;102807.97;5013209;28;20104;-68
2023/01/29 09:19:31;;;;;;;26.85;17.38;;;;;;;5.84;100.00;102802.75;5031442;28;20439;-70
2023/01/29 09:21:56;;;;;;;25.88;16.50;;;;;;;5.82;100.00;102796.63;5014143;28;20048;-69
2023/01/29 09:24:22;;;;;;;27.45;16.92;;;;;;;5.82;100.00;102804.47;5030981;28;20047;-69
2023/01/29 09:26:47;;;;;;;27.00;16.45;;;;;;;5.84;100.00;102794.91;5031063;28;20029;-71
2023/01/29 09:29:12;;;;;;;25.63;16.88;;;;;;;5.93;100.00;102792.44;5035692;28;20058;-70
2023/01/29 09:31:38;;;;;;;26.95;16.88;;;;;;;5.99;100.00;102786.44;5033148;28;20041;-70
2023/01/29 09:34:03;;;;;;;26.17;16.33;;;;;;;5.97;100.00;102782.03;5035413;28;20107;-69
2023/01/29 09:36:28;;;;;;;25.25;17.38;;;;;;;5.97;100.00;102789.88;5032788;28;20480;-70
2023/01/29 09:38:54;;;;;;;27.80;17.38;;;;;;;6.03;100.00;102788.28;5014006;28;20076;-68
2023/01/29 09:41:34;;;;;;;27.42;17.35;;;;;;;6.20;100.00;102777.19;5033163;28;20475;-69
2023/01/29 09:44:18;;;;;;;28.20;17.55;;;;;;;6.18;100.00;102792.03;5015063;28;20141;-68
2023/01/29 09:46:47;;;;;;;32.00;17.52;;;;;;;6.15;100.00;102800.72;5011427;28;20024;-66
2023/01/29 09:49:27;;;;;;;28.42;17.75;;;;;;;5.98;100.00;102792.53;5029648;28;20064;-68
2023/01/29 09:52:17;;;;;;;31.58;18.17;;;;;;;6.01;100.00;102787.34;5027572;28;20673;-68
2023/01/29 09:55:01;;;;;;;28.65;17.70;;;;;;;5.99;100.00;102790.81;5029943;28;20406;-68
2023/01/29 09:57:40;;;;;;;26.98;17.77;;;;;;;6.04;100.00;102790.06;5031446;28;20446;-68
2023/01/29 10:00:13;;;;;;;27.60;17.92;;;;;;;6.11;100.00;102779.69;5006231;28;20402;-70
2023/01/29 10:02:58;;;;;;;30.50;18.67;;;;;;;5.96;100.00;102775.91;5004052;28;20515;-69
2023/01/29 10:05:45;;;;;;;28.90;18.48;;;;;;;5.80;100.00;102780.91;5014003;28;20029;-71
2023/01/29 10:08:10;;;;;;;29.27;17.80;;;;;;;5.94;100.00;102781.13;5033495;28;20036;-64
2023/01/29 10:11:09;;;;;;;30.38;18.90;;;;;;;6.03;100.00;102776.91;5050682;28;20392;-68
2023/01/29 10:13:43;;;;;;;26.92;18.48;;;;;;;6.13;100.00;102775.34;4998727;28;20037;-67
2023/01/29 10:16:24;;;;;;;30.52;18.88;;;;;;;6.03;100.00;102776.91;5022838;28;20114;-71
2023/01/29 10:18:58;;;;;;;26.58;18.35;;;;;;;6.01;100.00;102770.75;5038591;28;20393;-69
2023/01/29 10:21:41;;;;;;;27.15;18.42;;;;;;;6.09;100.00;102773.53;5039827;28;20028;-69
2023/01/29 10:24:07;;;;;;;27.88;18.58;;;;;;;6.12;100.00;102765.75;5040956;28;20120;-68
2023/01/29 10:26:34;;;;;;;30.42;19.13;;;;;;;6.08;100.00;102764.78;5033655;28;20496;-70
2023/01/29 10:29:01;;;;;;;30.48;19.83;;;;;;;6.15;100.00;102769.31;5022384;28;20092;-69
2023/01/29 10:31:32;;;;;;;32.17;19.95;;;;;;;6.06;100.00;102756.06;5013631;28;20018;-63
2023/01/29 10:34:03;;;;;;;34.03;20.42;;;;;;;6.10;100.00;102760.47;5049823;28;20029;-67
2023/01/29 10:36:34;;;;;;;30.02;20.13;;;;;;;5.94;100.00;102757.56;5050393;28;20040;-70
2023/01/29 10:39:00;;;;;;;33.83;20.77;;;;;;;5.89;100.00;102761.84;5036662;28;20036;-70
2023/01/29 10:41:40;;;;;;;28.70;20.05;;;;;;;5.93;100.00;102747.09;5051816;28;20098;-65
2023/01/29 10:44:08;;;;;;;33.65;21.38;;;;;;;5.90;100.00;102749.66;5066965;28;20032;-68
2023/01/29 10:46:58;;;;;;;30.52;20.05;;;;;;;6.02;100.00;102743.75;5049335;28;20029;-69
2023/01/29 10:49:26;;;;;;;33.05;20.27;;;;;;;6.03;100.00;102737.66;5058732;28;20029;-70
2023/01/29 10:52:14;;;;;;;31.00;19.63;;;;;;;5.79;100.00;102736.41;5058685;28;20039;-68
2023/01/29 10:54:56;;;;;;;33.50;20.65;;;;;;;5.93;100.00;102729.66;5063881;28;20036;-70
2023/01/29 10:57:37;;;;;;;33.13;20.08;;;;;;;5.97;100.00;102720.13;5045931;28;20094;-69
2023/01/29 11:00:16;;;;;;;32.92;20.08;;;;;;;5.94;100.00;102720.06;5050107;28;20039;-70
2023/01/29 11:02:44;;;;;;;34.08;20.38;;;;;;;5.84;100.00;102715.53;5031846;28;20078;-70
2023/01/29 11:05:19;;;;;;;31.80;20.60;;;;;;;6.03;100.00;102708.88;5048870;28;20064;-72
2023/01/29 11:07:46;;;;;;;37.15;21.30;;;;;;;6.01;100.00;102716.69;5054521;28;20021;-68
2023/01/29 11:10:16;;;;;;;33.05;21.08;;;;;;;5.98;100.00;102708.78;5038958;28;20062;-71
2023/01/29 11:12:42;;;;;;;32.22;20.55;;;;;;;6.06;100.00;102708.94;5038954;28;20086;-69
2023/01/29 11:15:11;;;;;;;30.10;19.38;;;;;;;6.09;100.00;102703.75;5038649;28;20055;-72
2023/01/29 11:17:36;;;;;;;36.50;21.53;;;;;;;6.16;100.00;102699.47;5055925;28;20024;-70
2023/01/29 11:20:02;;;;;;;33.67;19.67;;;;;;;6.16;100.00;102704.72;5050933;28;20051;-69
2023/01/29 11:22:28;;;;;;;30.63;19.88;;;;;;;6.29;100.00;102695.31;5031432;28;20054;-68
2023/01/29 11:25:16;;;;;;;28.92;20.33;;;;;;;6.29;100.00;102701.41;5031527;28;20024;-70
2023/01/29 11:28:01;;;;;;;30.92;19.38;;;;;;;6.24;100.00;102691.75;5048901;28;20079;-69
2023/01/29 11:30:38;;;;;;;29.98;19.42;;;;;;;6.26;100.00;102696.13;5038483;28;20032;-68
2023/01/29 11:33:22;;;;;;;32.92;19.10;;;;;;;6.10;100.00;102691.53;5062049;28;20045;-69
2023/01/29 11:35:48;;;;;;;31.08;20.45;;;;;;;6.01;100.00;102693.13;5054773;28;20521;-69
2023/01/29 11:38:24;;;;;;;30.98;19.65;;;;;;;5.96;100.00;102691.31;5060870;28;20278;-66
2023/01/29 11:40:49;;;;;;;31.95;19.38;;;;;;;6.00;100.00;102687.88;5064685;28;20028;-69
2023/01/29 11:43:27;;;;;;;29.38;19.65;;;;;;;6.02;100.00;102681.81;5032305;28;20504;-71
2023/01/29 11:45:54;;;;;;;29.90;19.50;;;;;;;6.05;100.00;102681.88;5048275;28;20028;-68
2023/01/29 11:48:31;;;;;;;30.83;20.23;;;;;;;5.99;100.00;102675.66;5049109;28;20487;-72